createdAt,value
2019-03-17T00:00:44.180Z,62.67
2019-03-17T00:03:14.311Z,61.57
2019-03-17T00:05:44.581Z,62.32
2019-03-17T00:08:14.859Z,62.13
2019-03-17T00:10:45.015Z,62.36
2019-03-17T00:13:17.640Z,62.66
2019-03-17T00:15:46.824Z,62.69
2019-03-17T00:18:16.669Z,62.83
2019-03-17T00:20:46.497Z,63.49
2019-03-17T00:23:16.360Z,64.05
2019-03-17T00:25:46.486Z,64.39
2019-03-17T00:28:16.330Z,64.37
2019-03-17T00:30:46.219Z,64.45
2019-03-17T00:33:16.081Z,64.74
2019-03-17T00:35:45.931Z,64.69
2019-03-17T00:38:15.836Z,65.24
2019-03-17T00:40:45.695Z,65.22
2019-03-17T00:43:15.661Z,65.43
2019-03-17T00:45:45.599Z,65.82
2019-03-17T00:48:15.478Z,66.14
2019-03-17T00:50:45.296Z,66.35
2019-03-17T00:53:15.189Z,66.15
2019-03-17T00:55:45.096Z,66.29
2019-03-17T00:58:14.977Z,66.70
2019-03-17T01:00:45.217Z,66.75
2019-03-17T01:03:15.083Z,66.79
2019-03-17T01:05:45.056Z,66.92
2019-03-17T01:08:14.928Z,67.03
2019-03-17T01:10:45.257Z,66.70
2019-03-17T01:13:15.232Z,66.22
2019-03-17T01:15:45.069Z,66.88
2019-03-17T01:18:15.230Z,66.95
2019-03-17T01:20:45.444Z,67.07
2019-03-17T01:23:15.334Z,67.42
2019-03-17T01:25:45.259Z,66.45
2019-03-17T01:28:15.110Z,66.96
2019-03-17T01:30:45.080Z,67.08
2019-03-17T01:33:15.365Z,67.26
2019-03-17T01:35:45.201Z,67.31
2019-03-17T01:38:15.393Z,67.52
2019-03-17T01:40:45.221Z,67.58
2019-03-17T01:43:15.091Z,67.24
2019-03-17T01:45:45.071Z,67.22
2019-03-17T01:48:14.918Z,67.44
2019-03-17T01:50:44.784Z,67.24
2019-03-17T01:53:14.665Z,67.56
2019-03-17T01:55:44.842Z,67.61
2019-03-17T01:58:14.803Z,67.00
2019-03-17T02:00:45.003Z,66.96
2019-03-17T02:03:15.253Z,67.65
2019-03-17T02:05:45.110Z,67.50
2019-03-17T02:08:14.980Z,67.92
2019-03-17T02:10:44.941Z,68.53
2019-03-17T02:13:15.106Z,68.83
2019-03-17T02:15:44.953Z,69.00
2019-03-17T02:18:14.823Z,69.65
2019-03-17T02:20:44.670Z,69.74
2019-03-17T02:23:14.510Z,70.11
2019-03-17T02:25:44.420Z,70.71
2019-03-17T02:28:14.579Z,70.79
2019-03-17T02:30:44.491Z,70.97
2019-03-17T02:33:14.338Z,71.25
2019-03-17T02:35:44.520Z,71.34
2019-03-17T02:38:14.724Z,72.25
2019-03-17T02:40:44.882Z,72.91
2019-03-17T02:43:14.875Z,73.91
2019-03-17T02:45:45.083Z,74.62
2019-03-17T02:48:15.667Z,75.02
2019-03-17T02:50:46.001Z,75.71
2019-03-17T02:53:16.414Z,76.31
2019-03-17T02:55:46.378Z,76.96
2019-03-17T02:58:16.254Z,77.00
2019-03-17T03:00:46.148Z,77.25
2019-03-17T03:03:15.989Z,77.82
2019-03-17T03:05:54.625Z,77.48
2019-03-17T03:08:17.565Z,76.66
2019-03-17T03:10:47.754Z,75.50
2019-03-17T03:13:17.641Z,74.50
2019-03-17T03:15:47.521Z,74.04
2019-03-17T03:18:17.373Z,73.98
2019-03-17T03:20:47.345Z,74.23
2019-03-17T03:23:17.233Z,74.27
2019-03-17T03:25:47.073Z,74.66
2019-03-17T03:28:16.981Z,74.73
2019-03-17T03:30:46.913Z,74.99
2019-03-17T03:33:17.079Z,75.02
2019-03-17T03:35:47.004Z,74.89
2019-03-17T03:38:16.844Z,75.04
2019-03-17T03:40:46.775Z,75.26
2019-03-17T03:43:16.683Z,75.37
2019-03-17T03:45:46.546Z,75.18
2019-03-17T03:48:16.720Z,75.19
2019-03-17T03:50:46.947Z,75.52
2019-03-17T03:53:17.237Z,75.89
2019-03-17T03:55:47.184Z,76.05
2019-03-17T03:58:17.435Z,75.56
2019-03-17T04:00:47.726Z,74.81
2019-03-17T04:03:17.925Z,74.81
2019-03-17T04:05:48.050Z,74.78
2019-03-17T04:08:18.032Z,75.35
2019-03-17T04:10:48.049Z,75.50
2019-03-17T04:13:18.222Z,75.97
2019-03-17T04:15:48.063Z,76.28
2019-03-17T04:18:18.328Z,76.32
2019-03-17T04:20:48.749Z,76.39
2019-03-17T04:23:18.671Z,76.39
2019-03-17T04:25:48.906Z,76.60
2019-03-17T04:28:19.085Z,76.61
2019-03-17T04:30:49.119Z,76.77
2019-03-17T04:33:18.973Z,76.54
2019-03-17T04:35:49.263Z,76.74
2019-03-17T04:38:19.112Z,76.83
2019-03-17T04:40:49.767Z,76.22
2019-03-17T04:43:20.076Z,75.66
2019-03-17T04:45:50.037Z,75.74
2019-03-17T04:48:20.023Z,74.97
2019-03-17T04:50:49.874Z,75.06
2019-03-17T04:53:20.560Z,75.16
2019-03-17T04:55:50.777Z,75.24
2019-03-17T04:58:20.668Z,75.31
2019-03-17T05:00:50.502Z,74.93
2019-03-17T05:03:20.367Z,74.70
2019-03-17T05:05:50.660Z,75.18
2019-03-17T05:08:20.726Z,75.23
2019-03-17T05:10:50.922Z,74.97
2019-03-17T05:13:20.856Z,74.61
2019-03-17T05:15:50.701Z,74.68
2019-03-17T05:18:20.648Z,74.68
2019-03-17T05:20:50.599Z,74.83
2019-03-17T05:23:20.634Z,75.17
2019-03-17T05:25:50.487Z,75.36
2019-03-17T05:28:23.053Z,74.85
2019-03-17T05:30:52.337Z,74.76
2019-03-17T05:33:22.258Z,74.92
2019-03-17T05:35:52.114Z,74.87
2019-03-17T05:38:22.234Z,74.52
2019-03-17T05:40:52.139Z,74.39
2019-03-17T05:43:22.285Z,74.14
2019-03-17T05:45:52.170Z,73.73
2019-03-17T05:48:22.041Z,73.81
2019-03-17T05:50:51.887Z,73.02
2019-03-17T05:53:21.752Z,72.97
2019-03-17T05:55:51.702Z,72.75
2019-03-17T05:58:22.226Z,72.69
2019-03-17T06:00:52.790Z,72.51
2019-03-17T06:03:22.717Z,71.94
2019-03-17T06:05:52.916Z,71.95
2019-03-17T06:08:23.032Z,71.46
2019-03-17T06:10:53.015Z,70.64
2019-03-17T06:13:22.987Z,70.09
2019-03-17T06:15:52.838Z,68.43
2019-03-17T06:18:22.738Z,68.43
2019-03-17T06:20:52.604Z,68.67
2019-03-17T06:23:22.462Z,69.35
2019-03-17T06:25:52.304Z,69.21
2019-03-17T06:28:22.540Z,69.51
2019-03-17T06:30:52.418Z,69.26
2019-03-17T06:33:22.268Z,68.91
2019-03-17T06:35:52.119Z,68.38
2019-03-17T06:38:22.584Z,67.79
2019-03-17T06:40:53.184Z,67.26
2019-03-17T06:43:23.040Z,67.46
2019-03-17T06:45:52.909Z,67.54
2019-03-17T06:48:22.779Z,67.38
2019-03-17T06:50:52.628Z,67.61
2019-03-17T06:53:22.850Z,67.99
2019-03-17T06:55:52.702Z,67.84
2019-03-17T06:58:22.565Z,67.64
2019-03-17T07:00:52.669Z,67.96
2019-03-17T07:03:22.842Z,67.66
2019-03-17T07:05:52.743Z,67.05
2019-03-17T07:08:22.846Z,66.50
2019-03-17T07:10:53.176Z,66.38
2019-03-17T07:13:23.014Z,65.58
2019-03-17T07:15:52.944Z,64.89
2019-03-17T07:18:22.906Z,63.37
2019-03-17T07:20:53.045Z,62.11
2019-03-17T07:23:22.917Z,60.12
2019-03-17T07:25:53.201Z,60.27
2019-03-17T07:28:23.502Z,60.70
2019-03-17T07:30:54.140Z,59.85
2019-03-17T07:33:24.619Z,58.78
2019-03-17T07:35:55.233Z,57.57
2019-03-17T07:38:25.055Z,57.53
2019-03-17T07:40:55.254Z,58.72
2019-03-17T07:43:25.110Z,58.35
2019-03-17T07:45:55.005Z,59.45
2019-03-17T07:48:24.903Z,59.03
2019-03-17T07:50:55.076Z,59.24
2019-03-17T07:53:24.970Z,58.77
2019-03-17T07:55:55.214Z,58.30
2019-03-17T07:58:25.065Z,57.13
2019-03-17T08:00:55.330Z,56.44
2019-03-17T08:03:25.782Z,56.08
2019-03-17T08:05:55.939Z,56.14
2019-03-17T08:08:26.147Z,55.36
2019-03-17T08:10:56.055Z,54.22
2019-03-17T08:13:26.248Z,52.38
2019-03-17T08:15:56.116Z,53.81
2019-03-17T08:18:26.061Z,52.81
2019-03-17T08:20:55.891Z,52.89
2019-03-17T08:23:26.175Z,51.21
2019-03-17T08:25:56.386Z,50.83
2019-03-17T08:28:26.203Z,49.82
2019-03-17T08:30:56.092Z,49.79
2019-03-17T08:33:25.994Z,49.44
2019-03-17T08:35:55.975Z,49.58
2019-03-17T08:38:25.925Z,49.87
2019-03-17T08:40:56.278Z,50.55
2019-03-17T08:43:26.235Z,50.29
2019-03-17T08:45:56.422Z,51.06
2019-03-17T08:48:26.585Z,51.90
2019-03-17T08:50:56.446Z,52.05
2019-03-17T08:53:27.030Z,51.68
2019-03-17T08:55:56.908Z,51.70
2019-03-17T08:58:27.120Z,52.45
2019-03-17T09:00:57.000Z,51.63
2019-03-17T09:03:27.120Z,51.83
2019-03-17T09:05:56.983Z,51.37
2019-03-17T09:08:34.826Z,51.36
2019-03-17T09:10:58.506Z,51.26
2019-03-17T09:13:28.319Z,52.11
2019-03-17T09:15:58.523Z,51.88
2019-03-17T09:18:28.393Z,51.77
2019-03-17T09:20:58.244Z,51.95
2019-03-17T09:23:28.414Z,51.38
2019-03-17T09:25:59.358Z,51.54
2019-03-17T09:28:29.485Z,52.30
2019-03-17T09:30:59.346Z,53.05
2019-03-17T09:33:29.798Z,53.07
2019-03-17T09:35:59.653Z,53.44
2019-03-17T09:38:29.649Z,54.11
2019-03-17T09:40:59.541Z,54.11
2019-03-17T09:43:29.385Z,53.63
2019-03-17T09:45:59.538Z,54.17
2019-03-17T09:48:29.976Z,54.66
2019-03-17T09:51:00.289Z,54.52
2019-03-17T09:53:30.192Z,54.38
2019-03-17T09:56:00.055Z,54.17
2019-03-17T09:58:30.006Z,54.19
2019-03-17T10:01:00.356Z,54.76
2019-03-17T10:03:30.309Z,54.96
2019-03-17T10:06:00.780Z,55.50
2019-03-17T10:08:30.791Z,55.53
2019-03-17T10:11:00.719Z,55.86
2019-03-17T10:13:30.814Z,55.38
2019-03-17T10:16:00.683Z,56.41
2019-03-17T10:18:31.399Z,55.09
2019-03-17T10:21:01.790Z,55.70
2019-03-17T10:23:32.035Z,55.60
2019-03-17T10:26:01.910Z,55.08
2019-03-17T10:28:34.952Z,55.01
2019-03-17T10:31:04.228Z,55.33
2019-03-17T10:33:34.361Z,54.51
2019-03-17T10:36:04.570Z,54.30
2019-03-17T10:38:34.452Z,54.25
2019-03-17T10:41:04.387Z,53.89
2019-03-17T10:43:34.344Z,55.43
2019-03-17T10:46:04.228Z,55.40
2019-03-17T10:48:34.696Z,55.37
2019-03-17T10:51:04.901Z,55.21
2019-03-17T10:53:35.491Z,55.42
2019-03-17T10:56:06.362Z,56.94
2019-03-17T10:58:36.193Z,57.06
2019-03-17T11:01:06.483Z,58.25
2019-03-17T11:04:14.511Z,57.22
2019-03-17T11:06:44.806Z,57.33
2019-03-17T11:09:24.712Z,57.14
2019-03-17T11:11:46.739Z,59.29
2019-03-17T11:14:17.748Z,59.52
2019-03-17T11:16:48.433Z,60.30
2019-03-17T11:19:18.704Z,60.95
2019-03-17T11:21:49.066Z,61.74
2019-03-17T11:24:19.312Z,63.70
2019-03-17T11:26:49.594Z,66.88
2019-03-17T11:29:20.190Z,68.86
2019-03-17T11:31:51.079Z,69.02
2019-03-17T11:34:21.600Z,77.25
2019-03-17T11:36:52.014Z,81.62
2019-03-17T11:39:22.910Z,83.29
2019-03-17T11:41:53.447Z,82.40
2019-03-17T11:44:23.697Z,82.69
2019-03-17T11:46:54.064Z,82.57
2019-03-17T11:49:24.314Z,82.15
2019-03-17T11:51:54.632Z,82.40
2019-03-17T11:54:25.186Z,82.46
2019-03-17T11:56:55.447Z,81.44
2019-03-17T11:59:25.758Z,81.37
2019-03-17T12:01:55.744Z,79.10
2019-03-17T12:04:25.718Z,78.94
2019-03-17T12:06:57.215Z,77.60
2019-03-17T12:09:29.420Z,76.94
2019-03-17T12:11:59.690Z,76.04
2019-03-17T12:14:30.196Z,74.97
2019-03-17T12:17:00.166Z,74.45
2019-03-17T12:19:32.768Z,74.60
2019-03-17T12:22:08.935Z,74.63
2019-03-17T12:24:36.033Z,72.69
2019-03-17T12:27:06.183Z,71.60
2019-03-17T12:29:36.929Z,70.45
2019-03-17T12:32:07.305Z,70.99
2019-03-17T12:34:38.128Z,70.55
2019-03-17T12:37:08.359Z,70.76
2019-03-17T12:39:38.720Z,70.17
2019-03-17T12:42:09.104Z,71.51
2019-03-17T12:44:39.462Z,69.77
2019-03-17T12:47:09.991Z,70.55
2019-03-17T12:49:40.292Z,69.98
2019-03-17T12:52:10.547Z,70.24
2019-03-17T12:54:41.397Z,70.98
2019-03-17T12:57:12.324Z,71.19
2019-03-17T12:59:43.652Z,69.96
2019-03-17T13:02:13.988Z,69.58
2019-03-17T13:04:43.905Z,69.47
2019-03-17T13:07:14.254Z,69.67
2019-03-17T13:09:44.483Z,69.20
2019-03-17T13:12:14.797Z,69.66
2019-03-17T13:14:45.482Z,70.66
2019-03-17T13:17:15.904Z,71.17
2019-03-17T13:19:46.084Z,69.71
2019-03-17T13:22:16.231Z,69.60
2019-03-17T13:24:46.264Z,68.00
2019-03-17T13:27:16.560Z,67.15
2019-03-17T17:06:13.399Z,67.07
2019-03-17T17:08:44.184Z,66.83
2019-03-17T17:11:14.129Z,67.77
2019-03-17T17:13:44.943Z,71.54
2019-03-17T17:16:14.920Z,76.47
2019-03-17T17:18:45.675Z,78.35
2019-03-17T17:21:15.949Z,79.86
2019-03-17T17:23:45.853Z,80.37
2019-03-17T17:26:16.055Z,81.27
2019-03-17T17:28:46.865Z,81.93
2019-03-17T17:31:17.432Z,81.19
2019-03-17T17:33:47.650Z,79.40
2019-03-17T17:36:18.288Z,78.35
2019-03-17T17:38:48.711Z,78.06
2019-03-17T17:41:19.439Z,78.64
2019-03-17T17:43:49.632Z,78.77
2019-03-17T17:46:19.888Z,78.71
2019-03-17T17:48:50.442Z,79.24
2019-03-17T17:51:20.943Z,78.84
2019-03-17T17:53:51.448Z,79.70
2019-03-17T17:56:22.311Z,80.70
2019-03-17T17:58:52.742Z,81.35
2019-03-17T18:01:23.051Z,81.69
2019-03-17T18:03:53.020Z,82.53
2019-03-17T18:06:42.563Z,83.91
2019-03-17T18:09:13.321Z,84.77
2019-03-17T18:11:43.368Z,85.21
2019-03-17T18:14:13.965Z,85.06
2019-03-17T18:16:43.923Z,85.33
2019-03-17T18:19:14.331Z,85.42
2019-03-17T18:21:45.045Z,85.18
2019-03-17T18:24:15.028Z,85.31
2019-03-17T18:26:45.558Z,85.58
2019-03-17T18:29:15.815Z,85.92
2019-03-17T18:31:46.041Z,86.38
2019-03-17T18:34:16.140Z,86.56
2019-03-17T18:36:46.204Z,86.38
2019-03-17T18:39:16.459Z,85.95
2019-03-17T18:41:47.328Z,84.90
2019-03-17T18:44:17.343Z,84.24
2019-03-17T18:46:49.142Z,83.97
2019-03-17T18:49:19.380Z,83.39
2019-03-17T18:51:50.428Z,83.62
2019-03-17T18:54:20.794Z,83.24
2019-03-17T18:56:51.184Z,83.09
2019-03-17T18:59:21.772Z,82.90
2019-03-17T19:01:52.443Z,82.97
2019-03-17T19:04:23.108Z,83.15
2019-03-17T19:06:53.613Z,82.76
2019-03-17T19:09:24.456Z,82.78
2019-03-17T19:11:54.416Z,82.79
2019-03-17T19:14:24.711Z,82.33
2019-03-17T19:16:55.166Z,82.26
2019-03-17T19:19:25.966Z,82.28
2019-03-17T19:21:55.867Z,82.54
2019-03-17T19:24:26.093Z,82.57
2019-03-17T19:26:57.345Z,81.87
2019-03-17T19:29:27.585Z,81.76
2019-03-17T19:31:57.953Z,81.65
2019-03-17T19:34:27.913Z,81.33
2019-03-17T19:36:58.740Z,81.08
2019-03-17T19:39:29.600Z,80.17
2019-03-17T19:41:59.554Z,79.34
2019-03-17T19:44:30.454Z,79.09
2019-03-17T19:47:00.817Z,79.12
2019-03-17T19:52:42.374Z,78.42
2019-03-17T19:55:12.951Z,78.28
2019-03-17T19:57:42.924Z,77.79
2019-03-17T20:00:15.122Z,77.24
2019-03-17T20:02:47.584Z,77.36
2019-03-17T20:05:16.936Z,77.24
2019-03-17T20:07:47.030Z,77.45
2019-03-17T20:10:20.481Z,77.61
2019-03-17T20:12:50.802Z,77.84
2019-03-17T20:15:20.676Z,78.31
2019-03-17T20:17:50.597Z,78.37
2019-03-17T20:20:20.701Z,78.96
2019-03-17T20:22:50.642Z,79.42
2019-03-17T20:25:21.165Z,79.67
2019-03-17T20:27:51.302Z,79.92
2019-03-17T20:30:21.481Z,79.87
2019-03-17T20:32:51.664Z,80.34
2019-03-17T20:35:21.863Z,80.82
2019-03-17T20:37:52.038Z,80.96
2019-03-17T20:40:21.888Z,80.91
2019-03-17T20:42:51.748Z,80.33
2019-03-17T20:45:22.156Z,80.15
2019-03-17T20:47:52.079Z,80.03
2019-03-17T20:50:22.428Z,79.77
2019-03-17T20:52:52.767Z,79.08
2019-03-17T20:55:23.057Z,78.87
2019-03-17T20:57:53.354Z,78.77
2019-03-17T21:00:23.291Z,78.50
2019-03-17T21:02:53.274Z,78.24
2019-03-17T21:05:23.160Z,78.68
2019-03-17T21:07:53.359Z,78.09
2019-03-17T21:10:23.507Z,77.70
2019-03-17T21:12:53.359Z,77.93
2019-03-17T21:15:23.284Z,77.88
2019-03-17T21:17:53.268Z,77.19
2019-03-17T21:20:23.260Z,76.69
2019-03-17T21:22:53.326Z,76.53
2019-03-17T21:25:23.581Z,76.41
2019-03-17T21:27:54.185Z,76.50
2019-03-17T21:30:24.074Z,76.85
2019-03-17T21:32:53.962Z,76.51
2019-03-17T21:35:24.490Z,76.61
2019-03-17T21:37:54.370Z,76.18
2019-03-17T21:40:25.061Z,76.37
2019-03-17T21:42:55.645Z,76.32
2019-03-17T21:45:27.497Z,76.89
2019-03-17T21:47:57.076Z,77.02
2019-03-17T21:50:26.982Z,76.45
2019-03-17T21:52:56.899Z,76.88
2019-03-17T21:55:27.158Z,76.79
2019-03-17T21:57:57.352Z,76.77
2019-03-17T22:00:27.241Z,76.79
2019-03-17T22:02:57.473Z,76.83
2019-03-17T22:05:27.347Z,76.43
2019-03-17T22:07:57.342Z,76.16
2019-03-17T22:10:27.232Z,76.62
2019-03-17T22:12:57.115Z,76.22
2019-03-17T22:15:26.998Z,76.68
2019-03-17T22:17:56.879Z,76.20
2019-03-17T22:20:27.143Z,76.18
2019-03-17T22:22:57.325Z,76.11
2019-03-17T22:25:27.221Z,75.95
2019-03-17T22:28:07.756Z,75.12
2019-03-17T22:30:29.140Z,75.19
2019-03-17T22:32:59.047Z,74.95
2019-03-17T22:35:28.978Z,74.62
2019-03-17T22:37:58.874Z,73.99
2019-03-17T22:40:28.742Z,73.93
2019-03-17T22:42:58.597Z,73.37
2019-03-17T22:45:28.802Z,73.18
2019-03-17T22:47:58.679Z,72.93
2019-03-17T22:50:28.661Z,73.43
2019-03-17T22:52:58.583Z,72.97
2019-03-17T22:55:28.494Z,72.63
2019-03-17T22:57:59.436Z,71.98
2019-03-17T23:00:39.803Z,71.70
2019-03-17T23:03:10.166Z,72.12
2019-03-17T23:05:40.017Z,72.69
2019-03-17T23:08:10.261Z,73.43
2019-03-17T23:10:40.438Z,73.56
2019-03-17T23:13:10.818Z,74.17
2019-03-17T23:15:40.675Z,74.55
2019-03-17T23:18:10.809Z,75.34
2019-03-17T23:20:40.656Z,76.04
2019-03-17T23:23:10.529Z,76.33
2019-03-17T23:25:40.676Z,76.37
2019-03-17T23:28:10.577Z,76.54
2019-03-17T23:30:40.800Z,76.79
2019-03-17T23:33:11.009Z,76.20
2019-03-17T23:35:40.872Z,76.10
2019-03-17T23:38:11.036Z,75.63
2019-03-17T23:40:41.172Z,74.94
2019-03-17T23:43:11.345Z,74.60
2019-03-17T23:45:41.492Z,74.69
2019-03-17T23:48:11.681Z,74.17
2019-03-17T23:50:41.587Z,73.94
2019-03-17T23:53:12.344Z,72.58
2019-03-17T23:55:42.217Z,72.21
2019-03-17T23:58:12.409Z,72.61
